This is the latest recevied weather packets stored in our database for station/object KD0SBN. If no packets are shown the sender has not sent any weather packets the latest 10 day(s).
| Time | Temp. | Humidity | Pressure | Rain* | Wind** | Luminosity | Snow |
|---|---|---|---|---|---|---|---|
| 1777879163 | 13.89° C | 40% | 1010.8 hPa | 0 mm | - | - | - |
| 1777878860 | 15.56° C | 37% | 1010.8 hPa | 0 mm | - | - | - |
| 1777878557 | 14.44° C | 39% | 1011.2 hPa | 0 mm | - | - | - |
| 1777878254 | 15° C | 39% | 1011.1 hPa | 0 mm | - | - | - |
| 1777877949 | 14.44° C | 38% | 1011.1 hPa | 0 mm | - | - | - |
| 1777877646 | 14.44° C | 39% | 1011.1 hPa | 0 mm | - | - | - |
| 1777877343 | 15° C | 38% | 1011.1 hPa | 0 mm | - | - | - |
| 1777877041 | 15° C | 37% | 1011.2 hPa | 0 mm | - | - | - |
| 1777876738 | 15° C | 38% | 1011.3 hPa | 0 mm | - | - | - |
| 1777876436 | 15.56° C | 38% | 1011.1 hPa | 0 mm | - | - | - |
| 1777876131 | 15.56° C | 36% | 1011.3 hPa | 0 mm | - | - | - |
| 1777875828 | 15° C | 40% | 1011.2 hPa | 0 mm | - | - | - |
| 1777875524 | 16.67° C | 34% | 1011.3 hPa | 0 mm | - | - | - |
| 1777875221 | 17.22° C | 33% | 1011.1 hPa | 0 mm | - | - | - |
| 1777874918 | 17.22° C | 33% | 1010.9 hPa | 0 mm | - | - | - |
| 1777874613 | 16.67° C | 34% | 1010.9 hPa | 0 mm | - | - | - |
| 1777874311 | 16.67° C | 35% | 1011.1 hPa | 0 mm | - | - | - |
| 1777874009 | 16.11° C | 37% | 1011.1 hPa | 0 mm | - | - | - |
| 1777873707 | 16.67° C | 37% | 1010.8 hPa | 0 mm | - | - | - |
| 1777873404 | 16.67° C | 36% | 1010.9 hPa | 0 mm | - | - | - |
| 1777873100 | 16.67° C | 35% | 1011.1 hPa | 0 mm | - | - | - |
| 1777872796 | 16.67° C | 35% | 1011.1 hPa | 0 mm | - | - | - |
| 1777872494 | 16.67° C | 35% | 1011.1 hPa | 0 mm | - | - | - |
| 1777872192 | 17.22° C | 34% | 1011.1 hPa | 0 mm | - | - | - |
| 1777871889 | 17.22° C | 34% | 1011.3 hPa | 0 mm | - | - | - |
* Rain latest hour (hover to see other rain measurements)
** Current wind speed in m/s (hover to see current wind gust speed)